Tavistock, Canada
Current Conditions -  °F | °C
As of 12:00 AM on Tuesday 23 Dec 2014 (Local Time) from CYKF Reporting Station
Haze Haze  
Wind Chill: 24°   Ceiling: 9000
Heat Index: 32°   Visibility: 3mi
Dew Point: 30°   Wind: 10mph
Humidity: 93%   Direction: 90°E
Pressure: 29.98"   Gusts: NA
Location:  43.32°N, 80.83°W
Report Text: CYKF 230500Z AUTO 09009KT 3SM BR BKN090 BKN110 M00/M01 A2998 RMK SLP165
Loading
Personal Weather Stations






























Interactive Weather Map New forecast layout! Learn more

10-Day Weather Forecast

Advertisements
Track Severe Weather on mobile